sensor_id;sensor_type;location;lat;lon;timestamp;P1;durP1;ratioP1;P2;durP2;ratioP2
21941;SDS011;11135;54.192;15.670;2023-08-07T00:01:15;2.83;;;0.63;;
21941;SDS011;11135;54.192;15.670;2023-08-07T00:04:20;4.30;;;0.85;;
21941;SDS011;11135;54.192;15.670;2023-08-07T00:07:27;3.22;;;0.85;;
21941;SDS011;11135;54.192;15.670;2023-08-07T00:10:38;6.22;;;0.70;;
21941;SDS011;11135;54.192;15.670;2023-08-07T00:13:43;1.25;;;0.70;;
21941;SDS011;11135;54.192;15.670;2023-08-07T00:16:49;3.72;;;0.98;;
21941;SDS011;11135;54.192;15.670;2023-08-07T00:19:56;4.82;;;0.68;;
21941;SDS011;11135;54.192;15.670;2023-08-07T00:23:03;5.28;;;1.00;;
21941;SDS011;11135;54.192;15.670;2023-08-07T00:26:11;3.30;;;0.73;;
21941;SDS011;11135;54.192;15.670;2023-08-07T00:29:18;2.63;;;0.65;;
21941;SDS011;11135;54.192;15.670;2023-08-07T00:32:26;4.78;;;0.70;;
21941;SDS011;11135;54.192;15.670;2023-08-07T00:35:31;6.97;;;1.55;;
21941;SDS011;11135;54.192;15.670;2023-08-07T00:38:39;5.57;;;1.10;;
21941;SDS011;11135;54.192;15.670;2023-08-07T00:41:48;8.23;;;1.33;;
21941;SDS011;11135;54.192;15.670;2023-08-07T00:44:54;2.15;;;0.43;;
21941;SDS011;11135;54.192;15.670;2023-08-07T00:47:59;4.70;;;0.80;;
21941;SDS011;11135;54.192;15.670;2023-08-07T00:51:05;5.10;;;1.85;;
21941;SDS011;11135;54.192;15.670;2023-08-07T00:54:11;6.68;;;1.20;;
21941;SDS011;11135;54.192;15.670;2023-08-07T00:57:21;5.28;;;1.20;;
21941;SDS011;11135;54.192;15.670;2023-08-07T01:00:27;8.68;;;1.65;;
21941;SDS011;11135;54.192;15.670;2023-08-07T01:03:34;10.88;;;1.77;;
21941;SDS011;11135;54.192;15.670;2023-08-07T01:06:41;4.97;;;1.13;;
21941;SDS011;11135;54.192;15.670;2023-08-07T01:09:46;8.27;;;1.80;;
21941;SDS011;11135;54.192;15.670;2023-08-07T01:13:00;6.70;;;1.35;;
21941;SDS011;11135;54.192;15.670;2023-08-07T01:16:10;3.72;;;0.80;;
21941;SDS011;11135;54.192;15.670;2023-08-07T01:19:18;4.57;;;0.95;;
21941;SDS011;11135;54.192;15.670;2023-08-07T01:22:27;4.20;;;1.30;;
21941;SDS011;11135;54.192;15.670;2023-08-07T01:25:32;3.35;;;1.02;;
21941;SDS011;11135;54.192;15.670;2023-08-07T01:28:41;1.98;;;0.70;;
21941;SDS011;11135;54.192;15.670;2023-08-07T01:31:47;2.75;;;1.13;;
21941;SDS011;11135;54.192;15.670;2023-08-07T01:34:55;7.35;;;1.77;;
21941;SDS011;11135;54.192;15.670;2023-08-07T01:38:04;5.22;;;1.45;;
21941;SDS011;11135;54.192;15.670;2023-08-07T01:41:10;6.70;;;1.10;;
21941;SDS011;11135;54.192;15.670;2023-08-07T01:44:16;6.20;;;1.10;;
21941;SDS011;11135;54.192;15.670;2023-08-07T01:47:21;4.05;;;1.23;;
21941;SDS011;11135;54.192;15.670;2023-08-07T01:50:31;6.43;;;1.15;;
21941;SDS011;11135;54.192;15.670;2023-08-07T01:53:40;4.57;;;0.88;;
21941;SDS011;11135;54.192;15.670;2023-08-07T01:56:47;4.00;;;0.90;;
21941;SDS011;11135;54.192;15.670;2023-08-07T01:59:53;6.72;;;1.55;;
21941;SDS011;11135;54.192;15.670;2023-08-07T02:02:58;5.60;;;0.70;;
21941;SDS011;11135;54.192;15.670;2023-08-07T02:06:04;5.40;;;1.30;;
21941;SDS011;11135;54.192;15.670;2023-08-07T02:09:12;4.45;;;1.30;;
21941;SDS011;11135;54.192;15.670;2023-08-07T02:12:18;4.43;;;1.15;;
21941;SDS011;11135;54.192;15.670;2023-08-07T02:15:23;8.02;;;1.50;;
21941;SDS011;11135;54.192;15.670;2023-08-07T02:18:29;6.05;;;1.63;;
21941;SDS011;11135;54.192;15.670;2023-08-07T02:21:39;8.27;;;1.83;;
21941;SDS011;11135;54.192;15.670;2023-08-07T02:24:51;4.88;;;1.92;;
21941;SDS011;11135;54.192;15.670;2023-08-07T02:27:57;5.55;;;1.55;;
21941;SDS011;11135;54.192;15.670;2023-08-07T02:31:03;2.30;;;0.80;;
21941;SDS011;11135;54.192;15.670;2023-08-07T02:34:09;3.55;;;1.17;;
21941;SDS011;11135;54.192;15.670;2023-08-07T02:37:14;4.90;;;1.38;;
21941;SDS011;11135;54.192;15.670;2023-08-07T02:40:23;5.95;;;1.40;;
21941;SDS011;11135;54.192;15.670;2023-08-07T02:43:32;4.70;;;1.27;;
21941;SDS011;11135;54.192;15.670;2023-08-07T02:46:37;2.83;;;1.30;;
21941;SDS011;11135;54.192;15.670;2023-08-07T02:49:46;6.20;;;2.00;;
21941;SDS011;11135;54.192;15.670;2023-08-07T02:52:51;8.95;;;2.08;;
21941;SDS011;11135;54.192;15.670;2023-08-07T02:56:00;6.63;;;1.50;;
21941;SDS011;11135;54.192;15.670;2023-08-07T02:59:06;4.75;;;1.10;;
21941;SDS011;11135;54.192;15.670;2023-08-07T03:02:12;4.40;;;0.95;;
21941;SDS011;11135;54.192;15.670;2023-08-07T03:05:17;6.18;;;1.50;;
21941;SDS011;11135;54.192;15.670;2023-08-07T03:08:24;8.93;;;1.63;;
21941;SDS011;11135;54.192;15.670;2023-08-07T03:11:32;3.58;;;1.33;;
21941;SDS011;11135;54.192;15.670;2023-08-07T03:14:38;6.88;;;1.33;;
21941;SDS011;11135;54.192;15.670;2023-08-07T03:17:43;10.88;;;1.40;;
21941;SDS011;11135;54.192;15.670;2023-08-07T03:20:52;5.97;;;1.98;;
21941;SDS011;11135;54.192;15.670;2023-08-07T03:24:00;2.55;;;1.05;;
21941;SDS011;11135;54.192;15.670;2023-08-07T03:27:08;8.15;;;1.80;;
21941;SDS011;11135;54.192;15.670;2023-08-07T03:30:19;8.30;;;1.85;;
21941;SDS011;11135;54.192;15.670;2023-08-07T03:33:25;5.55;;;1.45;;
21941;SDS011;11135;54.192;15.670;2023-08-07T03:36:33;2.70;;;0.98;;
21941;SDS011;11135;54.192;15.670;2023-08-07T03:39:41;7.00;;;1.60;;
21941;SDS011;11135;54.192;15.670;2023-08-07T03:42:52;7.28;;;1.42;;
21941;SDS011;11135;54.192;15.670;2023-08-07T03:45:59;7.22;;;1.42;;
21941;SDS011;11135;54.192;15.670;2023-08-07T03:49:05;8.25;;;2.67;;
21941;SDS011;11135;54.192;15.670;2023-08-07T03:52:11;6.88;;;1.48;;
21941;SDS011;11135;54.192;15.670;2023-08-07T03:55:22;7.25;;;1.55;;
21941;SDS011;11135;54.192;15.670;2023-08-07T03:58:30;4.78;;;1.35;;
21941;SDS011;11135;54.192;15.670;2023-08-07T04:01:39;3.63;;;1.40;;
21941;SDS011;11135;54.192;15.670;2023-08-07T04:04:48;7.57;;;1.42;;
21941;SDS011;11135;54.192;15.670;2023-08-07T04:07:55;4.00;;;1.40;;
21941;SDS011;11135;54.192;15.670;2023-08-07T04:11:01;8.88;;;2.58;;
21941;SDS011;11135;54.192;15.670;2023-08-07T04:14:09;8.27;;;1.88;;
21941;SDS011;11135;54.192;15.670;2023-08-07T04:17:18;7.40;;;1.42;;
21941;SDS011;11135;54.192;15.670;2023-08-07T04:20:25;5.57;;;1.80;;
21941;SDS011;11135;54.192;15.670;2023-08-07T04:23:31;6.82;;;1.77;;
21941;SDS011;11135;54.192;15.670;2023-08-07T04:26:36;3.72;;;1.38;;
21941;SDS011;11135;54.192;15.670;2023-08-07T04:29:47;6.95;;;1.95;;
21941;SDS011;11135;54.192;15.670;2023-08-07T04:32:52;6.50;;;1.65;;
21941;SDS011;11135;54.192;15.670;2023-08-07T04:35:59;5.15;;;1.50;;
21941;SDS011;11135;54.192;15.670;2023-08-07T04:39:04;2.60;;;1.35;;
21941;SDS011;11135;54.192;15.670;2023-08-07T04:42:09;8.30;;;1.55;;
21941;SDS011;11135;54.192;15.670;2023-08-07T04:45:18;8.68;;;1.88;;
21941;SDS011;11135;54.192;15.670;2023-08-07T04:48:23;5.78;;;1.77;;
21941;SDS011;11135;54.192;15.670;2023-08-07T04:51:29;10.95;;;1.92;;
21941;SDS011;11135;54.192;15.670;2023-08-07T04:54:35;6.03;;;1.55;;
21941;SDS011;11135;54.192;15.670;2023-08-07T04:57:40;4.32;;;1.65;;
21941;SDS011;11135;54.192;15.670;2023-08-07T05:00:53;6.18;;;1.42;;
21941;SDS011;11135;54.192;15.670;2023-08-07T05:03:59;3.50;;;1.42;;
21941;SDS011;11135;54.192;15.670;2023-08-07T05:07:04;5.93;;;1.83;;
21941;SDS011;11135;54.192;15.670;2023-08-07T05:10:11;4.32;;;1.38;;
21941;SDS011;11135;54.192;15.670;2023-08-07T05:13:17;4.72;;;1.48;;
21941;SDS011;11135;54.192;15.670;2023-08-07T05:16:28;7.82;;;2.15;;
21941;SDS011;11135;54.192;15.670;2023-08-07T05:19:34;6.68;;;1.67;;
21941;SDS011;11135;54.192;15.670;2023-08-07T05:22:40;4.55;;;1.90;;
21941;SDS011;11135;54.192;15.670;2023-08-07T05:25:46;7.28;;;2.00;;
21941;SDS011;11135;54.192;15.670;2023-08-07T05:28:51;9.07;;;2.50;;
21941;SDS011;11135;54.192;15.670;2023-08-07T05:32:01;5.97;;;1.67;;
21941;SDS011;11135;54.192;15.670;2023-08-07T05:35:08;5.43;;;1.70;;
21941;SDS011;11135;54.192;15.670;2023-08-07T05:38:14;8.82;;;1.95;;
21941;SDS011;11135;54.192;15.670;2023-08-07T05:41:19;9.18;;;2.35;;
21941;SDS011;11135;54.192;15.670;2023-08-07T05:44:25;8.75;;;2.20;;
21941;SDS011;11135;54.192;15.670;2023-08-07T05:47:33;9.68;;;2.50;;
21941;SDS011;11135;54.192;15.670;2023-08-07T05:50:40;6.97;;;1.63;;
21941;SDS011;11135;54.192;15.670;2023-08-07T05:53:46;8.23;;;2.28;;
21941;SDS011;11135;54.192;15.670;2023-08-07T05:56:51;8.18;;;1.77;;
21941;SDS011;11135;54.192;15.670;2023-08-07T05:59:57;8.00;;;1.80;;
21941;SDS011;11135;54.192;15.670;2023-08-07T06:03:06;9.00;;;2.10;;
21941;SDS011;11135;54.192;15.670;2023-08-07T06:06:12;6.40;;;1.45;;
21941;SDS011;11135;54.192;15.670;2023-08-07T06:09:20;6.25;;;1.83;;
21941;SDS011;11135;54.192;15.670;2023-08-07T06:12:25;4.13;;;2.15;;
21941;SDS011;11135;54.192;15.670;2023-08-07T06:15:33;7.82;;;2.05;;
21941;SDS011;11135;54.192;15.670;2023-08-07T06:18:42;4.72;;;1.40;;
21941;SDS011;11135;54.192;15.670;2023-08-07T06:21:54;6.25;;;2.03;;
21941;SDS011;11135;54.192;15.670;2023-08-07T06:25:00;5.57;;;1.85;;
21941;SDS011;11135;54.192;15.670;2023-08-07T06:28:05;6.63;;;2.20;;
21941;SDS011;11135;54.192;15.670;2023-08-07T06:31:11;6.10;;;2.38;;
21941;SDS011;11135;54.192;15.670;2023-08-07T06:34:21;3.33;;;1.60;;
21941;SDS011;11135;54.192;15.670;2023-08-07T06:37:26;9.88;;;2.45;;
21941;SDS011;11135;54.192;15.670;2023-08-07T06:40:32;6.72;;;1.80;;
21941;SDS011;11135;54.192;15.670;2023-08-07T06:43:40;3.50;;;1.48;;
21941;SDS011;11135;54.192;15.670;2023-08-07T06:46:45;5.40;;;1.42;;
21941;SDS011;11135;54.192;15.670;2023-08-07T06:49:53;10.75;;;2.38;;
21941;SDS011;11135;54.192;15.670;2023-08-07T06:52:59;7.43;;;1.80;;
21941;SDS011;11135;54.192;15.670;2023-08-07T06:56:04;4.07;;;1.63;;
21941;SDS011;11135;54.192;15.670;2023-08-07T06:59:12;7.88;;;1.65;;
21941;SDS011;11135;54.192;15.670;2023-08-07T07:02:18;5.72;;;1.15;;
21941;SDS011;11135;54.192;15.670;2023-08-07T07:05:26;5.32;;;1.92;;
21941;SDS011;11135;54.192;15.670;2023-08-07T07:08:33;3.92;;;1.58;;
21941;SDS011;11135;54.192;15.670;2023-08-07T07:11:39;3.05;;;1.20;;
21941;SDS011;11135;54.192;15.670;2023-08-07T07:14:44;3.42;;;1.50;;
21941;SDS011;11135;54.192;15.670;2023-08-07T07:17:50;7.45;;;1.90;;
21941;SDS011;11135;54.192;15.670;2023-08-07T07:21:01;2.35;;;1.23;;
21941;SDS011;11135;54.192;15.670;2023-08-07T07:24:07;9.27;;;1.80;;
21941;SDS011;11135;54.192;15.670;2023-08-07T07:27:12;6.53;;;1.65;;
21941;SDS011;11135;54.192;15.670;2023-08-07T07:30:18;4.47;;;2.10;;
21941;SDS011;11135;54.192;15.670;2023-08-07T07:33:26;3.78;;;1.45;;
21941;SDS011;11135;54.192;15.670;2023-08-07T07:36:36;2.72;;;1.60;;
21941;SDS011;11135;54.192;15.670;2023-08-07T07:39:41;9.55;;;1.92;;
21941;SDS011;11135;54.192;15.670;2023-08-07T07:42:49;5.57;;;2.38;;
21941;SDS011;11135;54.192;15.670;2023-08-07T07:45:54;6.45;;;2.15;;
21941;SDS011;11135;54.192;15.670;2023-08-07T07:49:00;6.43;;;2.03;;
21941;SDS011;11135;54.192;15.670;2023-08-07T07:52:09;3.85;;;1.50;;
21941;SDS011;11135;54.192;15.670;2023-08-07T07:55:14;8.60;;;2.03;;
21941;SDS011;11135;54.192;15.670;2023-08-07T07:58:20;5.72;;;1.58;;
21941;SDS011;11135;54.192;15.670;2023-08-07T08:01:26;13.25;;;2.80;;
21941;SDS011;11135;54.192;15.670;2023-08-07T08:04:31;9.52;;;3.20;;
21941;SDS011;11135;54.192;15.670;2023-08-07T08:07:40;6.90;;;2.40;;
21941;SDS011;11135;54.192;15.670;2023-08-07T08:10:46;6.55;;;2.03;;
21941;SDS011;11135;54.192;15.670;2023-08-07T08:13:53;10.02;;;2.58;;
21941;SDS011;11135;54.192;15.670;2023-08-07T08:16:58;10.85;;;3.53;;
21941;SDS011;11135;54.192;15.670;2023-08-07T08:20:06;5.50;;;1.95;;
21941;SDS011;11135;54.192;15.670;2023-08-07T08:23:15;6.50;;;2.20;;
21941;SDS011;11135;54.192;15.670;2023-08-07T08:26:24;5.40;;;2.38;;
21941;SDS011;11135;54.192;15.670;2023-08-07T08:29:29;7.43;;;2.20;;
21941;SDS011;11135;54.192;15.670;2023-08-07T08:32:35;8.93;;;2.50;;
21941;SDS011;11135;54.192;15.670;2023-08-07T08:35:41;6.60;;;2.33;;
21941;SDS011;11135;54.192;15.670;2023-08-07T08:38:49;7.65;;;2.60;;
21941;SDS011;11135;54.192;15.670;2023-08-07T08:41:54;6.85;;;2.78;;
21941;SDS011;11135;54.192;15.670;2023-08-07T08:45:00;7.55;;;2.95;;
21941;SDS011;11135;54.192;15.670;2023-08-07T08:48:05;3.50;;;2.05;;
21941;SDS011;11135;54.192;15.670;2023-08-07T08:51:13;5.80;;;2.05;;
21941;SDS011;11135;54.192;15.670;2023-08-07T08:54:24;8.15;;;2.60;;
21941;SDS011;11135;54.192;15.670;2023-08-07T08:57:34;5.63;;;2.55;;
21941;SDS011;11135;54.192;15.670;2023-08-07T09:00:47;5.20;;;2.60;;
21941;SDS011;11135;54.192;15.670;2023-08-07T09:03:53;7.35;;;2.55;;
21941;SDS011;11135;54.192;15.670;2023-08-07T09:07:01;5.95;;;1.80;;
21941;SDS011;11135;54.192;15.670;2023-08-07T09:10:09;9.50;;;3.20;;
21941;SDS011;11135;54.192;15.670;2023-08-07T09:13:15;9.88;;;3.15;;
21941;SDS011;11135;54.192;15.670;2023-08-07T09:16:25;7.20;;;2.30;;
21941;SDS011;11135;54.192;15.670;2023-08-07T09:19:31;6.93;;;2.97;;
21941;SDS011;11135;54.192;15.670;2023-08-07T09:22:38;9.05;;;2.72;;
21941;SDS011;11135;54.192;15.670;2023-08-07T09:25:45;7.75;;;1.98;;
21941;SDS011;11135;54.192;15.670;2023-08-07T09:28:51;4.95;;;2.22;;
21941;SDS011;11135;54.192;15.670;2023-08-07T09:32:00;8.02;;;2.55;;
21941;SDS011;11135;54.192;15.670;2023-08-07T09:35:11;7.38;;;3.03;;
21941;SDS011;11135;54.192;15.670;2023-08-07T09:38:22;5.63;;;1.92;;
21941;SDS011;11135;54.192;15.670;2023-08-07T09:41:31;8.45;;;2.42;;
21941;SDS011;11135;54.192;15.670;2023-08-07T09:44:37;6.25;;;2.58;;
21941;SDS011;11135;54.192;15.670;2023-08-07T09:47:46;8.43;;;2.10;;
21941;SDS011;11135;54.192;15.670;2023-08-07T09:50:51;4.40;;;2.20;;
21941;SDS011;11135;54.192;15.670;2023-08-07T09:53:57;5.45;;;2.15;;
21941;SDS011;11135;54.192;15.670;2023-08-07T09:57:05;8.32;;;2.80;;
21941;SDS011;11135;54.192;15.670;2023-08-07T10:00:12;4.85;;;2.30;;
21941;SDS011;11135;54.192;15.670;2023-08-07T10:03:17;6.47;;;2.88;;
21941;SDS011;11135;54.192;15.670;2023-08-07T10:06:27;5.28;;;2.58;;
21941;SDS011;11135;54.192;15.670;2023-08-07T10:09:33;7.25;;;3.00;;
21941;SDS011;11135;54.192;15.670;2023-08-07T10:12:41;7.57;;;2.47;;
21941;SDS011;11135;54.192;15.670;2023-08-07T10:15:50;9.20;;;2.75;;
21941;SDS011;11135;54.192;15.670;2023-08-07T10:18:56;6.35;;;2.28;;
21941;SDS011;11135;54.192;15.670;2023-08-07T10:22:02;6.15;;;2.42;;
21941;SDS011;11135;54.192;15.670;2023-08-07T10:25:11;11.98;;;3.45;;
21941;SDS011;11135;54.192;15.670;2023-08-07T10:28:19;6.40;;;2.30;;
21941;SDS011;11135;54.192;15.670;2023-08-07T10:31:25;6.18;;;2.03;;
21941;SDS011;11135;54.192;15.670;2023-08-07T10:34:33;8.82;;;2.83;;
21941;SDS011;11135;54.192;15.670;2023-08-07T10:37:39;5.65;;;1.90;;
21941;SDS011;11135;54.192;15.670;2023-08-07T10:41:00;5.95;;;2.42;;
21941;SDS011;11135;54.192;15.670;2023-08-07T10:44:19;5.47;;;2.08;;
21941;SDS011;11135;54.192;15.670;2023-08-07T10:47:33;9.65;;;2.25;;
21941;SDS011;11135;54.192;15.670;2023-08-07T10:50:56;5.00;;;2.05;;
21941;SDS011;11135;54.192;15.670;2023-08-07T10:54:04;11.00;;;3.00;;
21941;SDS011;11135;54.192;15.670;2023-08-07T10:57:12;9.15;;;2.75;;
21941;SDS011;11135;54.192;15.670;2023-08-07T11:00:25;4.25;;;1.90;;
21941;SDS011;11135;54.192;15.670;2023-08-07T11:03:39;7.38;;;2.33;;
21941;SDS011;11135;54.192;15.670;2023-08-07T11:06:48;7.28;;;2.20;;
21941;SDS011;11135;54.192;15.670;2023-08-07T11:09:57;4.72;;;2.50;;
21941;SDS011;11135;54.192;15.670;2023-08-07T11:13:05;3.45;;;2.13;;
21941;SDS011;11135;54.192;15.670;2023-08-07T11:16:16;7.15;;;2.13;;
21941;SDS011;11135;54.192;15.670;2023-08-07T11:19:25;7.50;;;2.30;;
21941;SDS011;11135;54.192;15.670;2023-08-07T11:22:33;9.35;;;2.95;;
21941;SDS011;11135;54.192;15.670;2023-08-07T11:25:41;4.25;;;1.67;;
21941;SDS011;11135;54.192;15.670;2023-08-07T11:28:47;7.43;;;2.20;;
21941;SDS011;11135;54.192;15.670;2023-08-07T11:31:55;7.78;;;2.50;;
21941;SDS011;11135;54.192;15.670;2023-08-07T11:35:01;5.95;;;2.08;;
21941;SDS011;11135;54.192;15.670;2023-08-07T11:38:15;5.88;;;1.98;;
21941;SDS011;11135;54.192;15.670;2023-08-07T11:41:22;8.15;;;2.53;;
21941;SDS011;11135;54.192;15.670;2023-08-07T11:44:27;7.20;;;2.05;;
21941;SDS011;11135;54.192;15.670;2023-08-07T11:47:36;4.25;;;1.88;;
21941;SDS011;11135;54.192;15.670;2023-08-07T11:50:42;8.60;;;2.38;;
21941;SDS011;11135;54.192;15.670;2023-08-07T11:53:48;6.85;;;2.03;;
21941;SDS011;11135;54.192;15.670;2023-08-07T11:56:58;4.65;;;2.70;;
21941;SDS011;11135;54.192;15.670;2023-08-07T12:00:06;8.77;;;2.40;;
21941;SDS011;11135;54.192;15.670;2023-08-07T12:03:28;6.22;;;2.28;;
21941;SDS011;11135;54.192;15.670;2023-08-07T12:06:35;8.00;;;2.83;;
21941;SDS011;11135;54.192;15.670;2023-08-07T12:09:41;6.95;;;2.35;;
21941;SDS011;11135;54.192;15.670;2023-08-07T12:12:46;9.63;;;2.35;;
21941;SDS011;11135;54.192;15.670;2023-08-07T12:15:52;7.90;;;2.67;;
21941;SDS011;11135;54.192;15.670;2023-08-07T12:19:02;10.57;;;2.45;;
21941;SDS011;11135;54.192;15.670;2023-08-07T12:22:07;7.32;;;2.67;;
21941;SDS011;11135;54.192;15.670;2023-08-07T12:25:13;8.10;;;2.05;;
21941;SDS011;11135;54.192;15.670;2023-08-07T12:28:19;8.68;;;2.10;;
21941;SDS011;11135;54.192;15.670;2023-08-07T12:31:25;6.82;;;2.65;;
21941;SDS011;11135;54.192;15.670;2023-08-07T12:34:34;4.80;;;2.03;;
21941;SDS011;11135;54.192;15.670;2023-08-07T12:38:00;7.88;;;3.00;;
21941;SDS011;11135;54.192;15.670;2023-08-07T12:41:07;9.90;;;3.00;;
21941;SDS011;11135;54.192;15.670;2023-08-07T12:44:32;8.88;;;3.67;;
21941;SDS011;11135;54.192;15.670;2023-08-07T12:47:38;8.80;;;3.22;;
21941;SDS011;11135;54.192;15.670;2023-08-07T12:50:47;9.15;;;2.97;;
21941;SDS011;11135;54.192;15.670;2023-08-07T12:53:55;14.48;;;3.05;;
21941;SDS011;11135;54.192;15.670;2023-08-07T12:57:05;15.07;;;4.63;;
21941;SDS011;11135;54.192;15.670;2023-08-07T13:00:12;9.98;;;3.40;;
21941;SDS011;11135;54.192;15.670;2023-08-07T13:03:19;10.27;;;3.83;;
21941;SDS011;11135;54.192;15.670;2023-08-07T13:06:30;13.65;;;3.58;;
21941;SDS011;11135;54.192;15.670;2023-08-07T13:09:36;10.15;;;3.00;;
21941;SDS011;11135;54.192;15.670;2023-08-07T13:12:43;10.57;;;3.17;;
21941;SDS011;11135;54.192;15.670;2023-08-07T13:15:49;12.75;;;4.45;;
21941;SDS011;11135;54.192;15.670;2023-08-07T13:18:58;12.80;;;3.90;;
21941;SDS011;11135;54.192;15.670;2023-08-07T13:22:10;9.77;;;3.63;;
21941;SDS011;11135;54.192;15.670;2023-08-07T13:25:15;10.52;;;3.38;;
21941;SDS011;11135;54.192;15.670;2023-08-07T13:28:21;8.90;;;3.00;;
21941;SDS011;11135;54.192;15.670;2023-08-07T13:31:28;8.35;;;2.85;;
21941;SDS011;11135;54.192;15.670;2023-08-07T13:34:34;9.07;;;2.80;;
21941;SDS011;11135;54.192;15.670;2023-08-07T13:37:45;16.27;;;3.78;;
21941;SDS011;11135;54.192;15.670;2023-08-07T13:40:51;13.05;;;3.80;;
21941;SDS011;11135;54.192;15.670;2023-08-07T13:43:56;14.27;;;3.95;;
21941;SDS011;11135;54.192;15.670;2023-08-07T13:47:02;11.40;;;3.13;;
21941;SDS011;11135;54.192;15.670;2023-08-07T13:50:08;10.85;;;3.30;;
21941;SDS011;11135;54.192;15.670;2023-08-07T13:53:18;14.57;;;3.47;;
21941;SDS011;11135;54.192;15.670;2023-08-07T13:56:26;9.90;;;3.55;;
21941;SDS011;11135;54.192;15.670;2023-08-07T13:59:34;11.18;;;3.53;;
21941;SDS011;11135;54.192;15.670;2023-08-07T14:02:39;12.52;;;3.58;;
21941;SDS011;11135;54.192;15.670;2023-08-07T14:05:45;7.85;;;2.47;;
21941;SDS011;11135;54.192;15.670;2023-08-07T14:08:56;10.80;;;2.92;;
21941;SDS011;11135;54.192;15.670;2023-08-07T14:12:02;11.52;;;3.67;;
21941;SDS011;11135;54.192;15.670;2023-08-07T14:15:09;13.98;;;4.03;;
21941;SDS011;11135;54.192;15.670;2023-08-07T14:18:18;8.98;;;2.75;;
21941;SDS011;11135;54.192;15.670;2023-08-07T14:21:25;11.80;;;3.20;;
21941;SDS011;11135;54.192;15.670;2023-08-07T14:24:33;15.20;;;3.33;;
21941;SDS011;11135;54.192;15.670;2023-08-07T14:27:41;7.85;;;2.28;;
21941;SDS011;11135;54.192;15.670;2023-08-07T14:30:47;14.43;;;3.20;;
21941;SDS011;11135;54.192;15.670;2023-08-07T14:33:52;10.27;;;2.47;;
21941;SDS011;11135;54.192;15.670;2023-08-07T14:37:05;11.88;;;3.05;;
21941;SDS011;11135;54.192;15.670;2023-08-07T14:40:17;6.72;;;2.70;;
21941;SDS011;11135;54.192;15.670;2023-08-07T14:43:25;9.55;;;2.72;;
21941;SDS011;11135;54.192;15.670;2023-08-07T14:46:33;11.45;;;3.38;;
21941;SDS011;11135;54.192;15.670;2023-08-07T14:49:46;8.02;;;2.63;;
21941;SDS011;11135;54.192;15.670;2023-08-07T14:52:51;9.60;;;2.63;;
21941;SDS011;11135;54.192;15.670;2023-08-07T14:56:02;8.70;;;2.78;;
21941;SDS011;11135;54.192;15.670;2023-08-07T14:59:07;15.00;;;2.83;;
21941;SDS011;11135;54.192;15.670;2023-08-07T15:02:13;7.22;;;2.53;;
21941;SDS011;11135;54.192;15.670;2023-08-07T15:05:21;11.02;;;3.22;;
21941;SDS011;11135;54.192;15.670;2023-08-07T15:08:28;13.90;;;2.58;;
21941;SDS011;11135;54.192;15.670;2023-08-07T15:11:37;6.47;;;3.10;;
21941;SDS011;11135;54.192;15.670;2023-08-07T15:14:46;9.03;;;2.90;;
21941;SDS011;11135;54.192;15.670;2023-08-07T15:17:52;4.82;;;2.40;;
21941;SDS011;11135;54.192;15.670;2023-08-07T15:20:58;11.13;;;3.30;;
21941;SDS011;11135;54.192;15.670;2023-08-07T15:24:06;10.18;;;3.55;;
21941;SDS011;11135;54.192;15.670;2023-08-07T15:27:15;11.98;;;3.63;;
21941;SDS011;11135;54.192;15.670;2023-08-07T15:30:23;9.87;;;2.40;;
21941;SDS011;11135;54.192;15.670;2023-08-07T15:33:31;17.52;;;5.00;;
21941;SDS011;11135;54.192;15.670;2023-08-07T15:36:39;13.00;;;3.40;;
21941;SDS011;11135;54.192;15.670;2023-08-07T15:39:45;12.05;;;3.08;;
21941;SDS011;11135;54.192;15.670;2023-08-07T15:42:54;10.68;;;3.28;;
21941;SDS011;11135;54.192;15.670;2023-08-07T15:45:59;12.63;;;3.58;;
21941;SDS011;11135;54.192;15.670;2023-08-07T15:49:07;11.02;;;3.47;;
21941;SDS011;11135;54.192;15.670;2023-08-07T15:52:13;10.98;;;3.20;;
21941;SDS011;11135;54.192;15.670;2023-08-07T15:55:21;11.07;;;3.10;;
21941;SDS011;11135;54.192;15.670;2023-08-07T15:58:45;8.05;;;2.67;;
21941;SDS011;11135;54.192;15.670;2023-08-07T16:01:53;10.43;;;3.00;;
21941;SDS011;11135;54.192;15.670;2023-08-07T16:05:03;8.32;;;2.63;;
21941;SDS011;11135;54.192;15.670;2023-08-07T16:08:09;9.65;;;3.33;;
21941;SDS011;11135;54.192;15.670;2023-08-07T16:11:17;12.75;;;3.45;;
21941;SDS011;11135;54.192;15.670;2023-08-07T16:14:25;7.75;;;3.08;;
21941;SDS011;11135;54.192;15.670;2023-08-07T16:17:37;11.35;;;3.05;;
21941;SDS011;11135;54.192;15.670;2023-08-07T16:20:42;8.88;;;3.03;;
21941;SDS011;11135;54.192;15.670;2023-08-07T16:23:48;11.35;;;3.00;;
21941;SDS011;11135;54.192;15.670;2023-08-07T16:26:53;10.70;;;2.85;;
21941;SDS011;11135;54.192;15.670;2023-08-07T16:30:05;10.07;;;3.33;;
21941;SDS011;11135;54.192;15.670;2023-08-07T16:33:10;9.30;;;2.72;;
21941;SDS011;11135;54.192;15.670;2023-08-07T16:36:18;11.63;;;2.88;;
21941;SDS011;11135;54.192;15.670;2023-08-07T16:39:24;7.93;;;2.58;;
21941;SDS011;11135;54.192;15.670;2023-08-07T16:42:29;8.52;;;2.30;;
21941;SDS011;11135;54.192;15.670;2023-08-07T16:45:38;13.38;;;2.55;;
21941;SDS011;11135;54.192;15.670;2023-08-07T16:48:45;10.35;;;2.90;;
21941;SDS011;11135;54.192;15.670;2023-08-07T16:51:51;12.40;;;2.42;;
21941;SDS011;11135;54.192;15.670;2023-08-07T16:55:01;9.25;;;2.60;;
21941;SDS011;11135;54.192;15.670;2023-08-07T16:58:09;7.05;;;1.90;;
21941;SDS011;11135;54.192;15.670;2023-08-07T17:01:18;10.30;;;2.92;;
21941;SDS011;11135;54.192;15.670;2023-08-07T17:04:31;8.10;;;1.95;;
21941;SDS011;11135;54.192;15.670;2023-08-07T17:07:37;5.70;;;1.50;;
21941;SDS011;11135;54.192;15.670;2023-08-07T17:10:43;5.43;;;1.65;;
21941;SDS011;11135;54.192;15.670;2023-08-07T17:13:49;5.07;;;1.40;;
21941;SDS011;11135;54.192;15.670;2023-08-07T17:16:59;8.27;;;2.10;;
21941;SDS011;11135;54.192;15.670;2023-08-07T17:20:06;8.75;;;2.95;;
21941;SDS011;11135;54.192;15.670;2023-08-07T17:23:12;8.25;;;2.00;;
21941;SDS011;11135;54.192;15.670;2023-08-07T17:26:18;4.97;;;1.77;;
21941;SDS011;11135;54.192;15.670;2023-08-07T17:29:25;9.90;;;2.42;;
21941;SDS011;11135;54.192;15.670;2023-08-07T17:32:36;7.57;;;2.30;;
21941;SDS011;11135;54.192;15.670;2023-08-07T17:35:41;8.75;;;1.60;;
21941;SDS011;11135;54.192;15.670;2023-08-07T17:38:48;7.40;;;2.30;;
21941;SDS011;11135;54.192;15.670;2023-08-07T17:41:54;9.07;;;2.88;;
21941;SDS011;11135;54.192;15.670;2023-08-07T17:45:02;8.10;;;1.90;;
21941;SDS011;11135;54.192;15.670;2023-08-07T17:48:13;7.75;;;1.83;;
21941;SDS011;11135;54.192;15.670;2023-08-07T17:51:19;10.20;;;2.33;;
21941;SDS011;11135;54.192;15.670;2023-08-07T17:54:25;4.93;;;2.20;;
21941;SDS011;11135;54.192;15.670;2023-08-07T17:57:32;9.50;;;2.10;;
21941;SDS011;11135;54.192;15.670;2023-08-07T18:00:40;5.13;;;2.55;;
21941;SDS011;11135;54.192;15.670;2023-08-07T18:04:00;5.65;;;1.83;;
21941;SDS011;11135;54.192;15.670;2023-08-07T18:07:08;10.18;;;2.90;;
21941;SDS011;11135;54.192;15.670;2023-08-07T18:10:17;13.50;;;2.83;;
21941;SDS011;11135;54.192;15.670;2023-08-07T18:13:22;9.55;;;2.10;;
21941;SDS011;11135;54.192;15.670;2023-08-07T18:16:28;10.63;;;2.08;;
21941;SDS011;11135;54.192;15.670;2023-08-07T18:19:36;9.15;;;2.80;;
21941;SDS011;11135;54.192;15.670;2023-08-07T18:22:44;10.98;;;2.65;;
21941;SDS011;11135;54.192;15.670;2023-08-07T18:25:54;8.13;;;1.70;;
21941;SDS011;11135;54.192;15.670;2023-08-07T18:29:03;7.20;;;1.83;;